createdAt,value
2023-09-15T00:00:19.113Z,20.65
2023-09-15T00:02:47.172Z,20.55
2023-09-15T00:05:15.227Z,20.46
2023-09-15T00:07:42.370Z,20.33
2023-09-15T00:10:13.220Z,20.34
2023-09-15T00:12:43.676Z,20.27
2023-09-15T00:15:11.388Z,20.30
2023-09-15T00:17:40.392Z,20.31
2023-09-15T00:20:14.720Z,20.27
2023-09-15T00:22:50.612Z,20.28
2023-09-15T00:25:21.634Z,20.21
2023-09-15T00:27:50.220Z,20.10
2023-09-15T00:30:19.006Z,20.12
2023-09-15T00:32:48.453Z,20.21
2023-09-15T00:35:19.164Z,20.18
2023-09-15T00:37:47.486Z,20.22
2023-09-15T00:40:15.982Z,20.23
2023-09-15T00:42:44.831Z,20.23
2023-09-15T00:45:15.832Z,20.26
2023-09-15T00:47:47.453Z,20.09
2023-09-15T00:50:16.183Z,20.23
2023-09-15T00:52:46.491Z,20.04
2023-09-15T00:55:14.726Z,20.14
2023-09-15T00:57:42.222Z,20.19
2023-09-15T01:00:14.951Z,20.04
2023-09-15T01:02:46.010Z,20.02
2023-09-15T01:05:21.024Z,20.06
2023-09-15T01:07:50.534Z,19.97
2023-09-15T01:10:17.295Z,20.06
2023-09-15T01:12:44.755Z,20.10
2023-09-15T01:15:12.103Z,20.06
2023-09-15T01:18:07.874Z,20.10
2023-09-15T01:21:06.791Z,20.00
2023-09-15T01:23:55.211Z,19.93
2023-09-15T01:26:28.047Z,20.01
2023-09-15T01:28:57.928Z,19.93
2023-09-15T01:31:25.841Z,20.01
2023-09-15T01:33:53.856Z,19.95
2023-09-15T01:36:20.776Z,19.95
2023-09-15T01:38:48.255Z,19.97
2023-09-15T01:41:15.335Z,19.87
2023-09-15T01:43:42.284Z,19.92
2023-09-15T01:46:09.202Z,19.90
2023-09-15T01:48:37.472Z,19.63
2023-09-15T01:51:04.869Z,19.65
2023-09-15T01:53:32.587Z,19.69
2023-09-15T01:55:59.517Z,19.67
2023-09-15T01:58:26.459Z,19.66
2023-09-15T02:00:53.428Z,19.60
2023-09-15T02:03:20.435Z,19.67
2023-09-15T02:05:47.762Z,19.46
2023-09-15T02:08:14.817Z,19.50
2023-09-15T02:10:41.625Z,19.55
2023-09-15T02:13:10.356Z,19.52
2023-09-15T02:15:37.215Z,19.54
2023-09-15T02:18:04.742Z,19.40
2023-09-15T02:20:31.921Z,19.54
2023-09-15T02:23:04.788Z,19.49
2023-09-15T02:25:32.351Z,19.50
2023-09-15T02:27:59.374Z,19.42
2023-09-15T02:30:29.008Z,19.46
2023-09-15T02:32:56.023Z,19.39
2023-09-15T02:35:22.973Z,19.31
2023-09-15T02:37:49.836Z,19.39
2023-09-15T02:40:17.051Z,19.41
2023-09-15T02:42:44.038Z,19.50
2023-09-15T02:45:12.152Z,19.45
2023-09-15T02:47:39.077Z,19.44
2023-09-15T02:50:06.986Z,19.48
2023-09-15T02:52:34.326Z,19.38
2023-09-15T02:55:01.290Z,19.38
2023-09-15T02:57:31.492Z,19.40
2023-09-15T03:00:01.274Z,18.95
2023-09-15T03:02:30.515Z,19.29
2023-09-15T03:04:57.750Z,19.26
2023-09-15T03:07:24.833Z,19.22
2023-09-15T03:09:51.838Z,19.26
2023-09-15T03:12:18.907Z,19.07
2023-09-15T03:14:45.979Z,19.11
2023-09-15T03:17:13.597Z,19.25
2023-09-15T03:19:41.900Z,19.25
2023-09-15T03:22:09.698Z,19.27
2023-09-15T03:24:37.982Z,19.15
2023-09-15T03:27:06.542Z,19.26
2023-09-15T03:29:33.427Z,19.18
2023-09-15T03:32:00.292Z,19.30
2023-09-15T03:34:27.283Z,19.30
2023-09-15T03:36:54.654Z,19.11
2023-09-15T03:39:23.161Z,19.11
2023-09-15T03:41:50.087Z,19.10
2023-09-15T03:44:16.934Z,19.25
2023-09-15T03:46:43.963Z,19.01
2023-09-15T03:49:11.020Z,19.04
2023-09-15T03:51:38.009Z,19.05
2023-09-15T03:54:05.021Z,19.16
2023-09-15T03:56:33.908Z,19.09
2023-09-15T03:59:01.339Z,19.14
2023-09-15T04:01:28.311Z,19.05
2023-09-15T04:03:55.433Z,18.98
2023-09-15T04:06:23.713Z,19.05
2023-09-15T04:08:51.226Z,19.11
2023-09-15T04:11:18.901Z,18.96
2023-09-15T04:13:45.911Z,19.01
2023-09-15T04:16:13.039Z,19.07
2023-09-15T04:18:40.044Z,19.05
2023-09-15T04:21:06.984Z,18.96
2023-09-15T04:23:34.680Z,18.97
2023-09-15T04:26:05.341Z,19.12
2023-09-15T04:28:32.237Z,18.96
2023-09-15T04:30:59.557Z,19.05
2023-09-15T04:33:26.621Z,19.07
2023-09-15T04:35:53.659Z,19.08
2023-09-15T04:38:20.705Z,19.13
2023-09-15T04:40:47.885Z,19.17
2023-09-15T04:43:18.245Z,19.02
2023-09-15T04:45:45.923Z,19.08
2023-09-15T04:48:13.225Z,19.13
2023-09-15T04:50:40.893Z,19.02
2023-09-15T04:53:11.157Z,19.07
2023-09-15T04:55:41.073Z,19.22
2023-09-15T04:58:08.945Z,19.37
2023-09-15T05:00:36.493Z,19.31
2023-09-15T05:03:04.925Z,19.36
2023-09-15T05:05:32.146Z,19.29
2023-09-15T05:07:59.770Z,19.44
2023-09-15T05:10:26.973Z,19.56
2023-09-15T05:12:54.260Z,19.67
2023-09-15T05:15:22.391Z,19.66
2023-09-15T05:17:49.475Z,19.55
2023-09-15T05:20:17.917Z,19.58
2023-09-15T05:22:44.864Z,19.71
2023-09-15T05:25:12.208Z,19.57
2023-09-15T05:27:39.496Z,19.79
2023-09-15T05:30:08.025Z,19.56
2023-09-15T05:32:37.539Z,19.73
2023-09-15T05:35:07.383Z,19.94
2023-09-15T05:37:34.750Z,19.89
2023-09-15T05:40:01.845Z,19.75
2023-09-15T05:42:30.146Z,19.75
2023-09-15T05:44:56.999Z,19.81
2023-09-15T05:47:24.015Z,19.93
2023-09-15T05:49:51.017Z,19.90
2023-09-15T05:52:18.856Z,20.02
2023-09-15T05:54:45.811Z,19.98
2023-09-15T05:57:12.825Z,19.99
2023-09-15T05:59:39.687Z,20.06
2023-09-15T06:02:08.292Z,20.03
2023-09-15T06:04:35.382Z,20.02
2023-09-15T06:07:02.449Z,20.07
2023-09-15T06:09:29.398Z,20.31
2023-09-15T06:11:56.258Z,20.43
2023-09-15T06:14:23.230Z,20.41
2023-09-15T06:16:50.253Z,20.50
2023-09-15T06:19:17.171Z,20.73
2023-09-15T06:21:44.088Z,20.80
2023-09-15T06:24:10.977Z,20.80
2023-09-15T06:26:39.265Z,21.06
2023-09-15T06:29:07.307Z,21.14
2023-09-15T06:31:34.629Z,21.12
2023-09-15T06:34:01.921Z,21.19
2023-09-15T06:36:28.843Z,21.28
2023-09-15T06:38:56.128Z,21.34
2023-09-15T06:41:23.101Z,21.34
2023-09-15T06:43:50.256Z,21.29
2023-09-15T06:46:23.161Z,21.18
2023-09-15T06:48:50.638Z,21.03
2023-09-15T06:51:17.556Z,21.02
2023-09-15T06:53:44.451Z,21.16
2023-09-15T06:56:11.257Z,21.19
2023-09-15T06:58:38.107Z,21.33
2023-09-15T07:01:05.427Z,21.58
2023-09-15T07:03:34.136Z,21.66
2023-09-15T07:06:01.209Z,21.74
2023-09-15T07:08:28.179Z,21.89
2023-09-15T07:10:55.089Z,22.23
2023-09-15T07:13:22.250Z,22.41
2023-09-15T07:15:49.192Z,22.25
2023-09-15T07:18:16.270Z,22.32
2023-09-15T07:20:43.458Z,22.56
2023-09-15T07:23:11.012Z,22.47
2023-09-15T07:25:38.383Z,22.69
2023-09-15T07:28:06.065Z,22.82
2023-09-15T07:30:33.120Z,22.84
2023-09-15T07:33:01.037Z,22.97
2023-09-15T07:35:28.164Z,22.97
2023-09-15T07:37:55.078Z,23.24
2023-09-15T07:40:25.269Z,22.96
2023-09-15T07:42:52.796Z,22.92
2023-09-15T07:45:19.912Z,22.87
2023-09-15T07:47:47.452Z,23.26
2023-09-15T07:50:14.688Z,23.27
2023-09-15T07:52:42.044Z,23.54
2023-09-15T07:55:09.443Z,23.31
2023-09-15T07:57:38.583Z,23.50
2023-09-15T08:00:08.638Z,23.43
2023-09-15T08:02:41.702Z,23.70
2023-09-15T08:05:09.338Z,23.64
2023-09-15T08:07:36.469Z,23.91
2023-09-15T08:10:04.968Z,24.12
2023-09-15T08:12:32.340Z,24.20
2023-09-15T08:14:59.231Z,24.39
2023-09-15T08:17:33.782Z,24.50
2023-09-15T08:20:03.034Z,24.49
2023-09-15T08:22:31.459Z,24.77
2023-09-15T08:24:59.789Z,24.86
2023-09-15T08:27:27.134Z,24.88
2023-09-15T08:29:54.371Z,25.04
2023-09-15T08:32:21.363Z,24.50
2023-09-15T08:34:48.291Z,24.88
2023-09-15T08:37:15.329Z,25.15
2023-09-15T08:39:42.242Z,25.45
2023-09-15T08:42:24.968Z,25.62
2023-09-15T08:44:53.144Z,25.69
2023-09-15T08:47:23.612Z,25.27
2023-09-15T08:49:52.787Z,24.82
2023-09-15T08:52:20.250Z,25.27
2023-09-15T08:54:47.791Z,25.20
2023-09-15T08:57:16.681Z,24.91
2023-09-15T08:59:44.042Z,25.12
2023-09-15T09:02:13.498Z,25.35
2023-09-15T09:04:41.021Z,25.05
2023-09-15T09:07:09.003Z,25.34
2023-09-15T09:09:37.776Z,25.12
2023-09-15T09:12:05.153Z,25.57
2023-09-15T09:14:32.013Z,25.37
2023-09-15T09:16:59.712Z,25.64
2023-09-15T09:19:36.277Z,25.66
2023-09-15T09:22:03.782Z,25.58
2023-09-15T09:24:30.801Z,25.20
2023-09-15T09:26:57.907Z,24.93
2023-09-15T09:29:28.979Z,25.47
2023-09-15T09:31:56.661Z,25.38
2023-09-15T09:34:39.502Z,25.38
2023-09-15T09:37:10.736Z,25.88
2023-09-15T09:39:37.802Z,26.10
2023-09-15T09:42:05.437Z,26.02
2023-09-15T09:44:37.398Z,25.95
2023-09-15T09:47:10.874Z,26.15
2023-09-15T09:49:38.741Z,26.35
2023-09-15T09:52:05.764Z,26.64
2023-09-15T09:54:35.363Z,26.79
2023-09-15T09:57:04.001Z,26.63
2023-09-15T09:59:31.113Z,25.97
2023-09-15T10:01:58.034Z,26.08
2023-09-15T10:04:24.960Z,26.34
2023-09-15T10:06:52.503Z,26.51
2023-09-15T10:09:20.042Z,26.59
2023-09-15T10:11:47.812Z,26.65
2023-09-15T10:14:15.204Z,27.10
2023-09-15T10:16:42.089Z,27.60
2023-09-15T10:19:10.725Z,27.72
2023-09-15T10:21:38.571Z,27.22
2023-09-15T10:24:07.590Z,27.41
2023-09-15T10:26:43.033Z,27.86
2023-09-15T10:29:14.447Z,27.35
2023-09-15T10:31:48.320Z,26.57
2023-09-15T10:34:17.330Z,27.43
2023-09-15T10:36:45.837Z,27.49
2023-09-15T10:39:18.382Z,27.66
2023-09-15T10:41:46.129Z,27.66
2023-09-15T10:44:13.565Z,27.86
2023-09-15T10:46:43.211Z,27.58
2023-09-15T10:49:15.455Z,27.42
2023-09-15T10:51:56.949Z,27.84
2023-09-15T10:54:31.014Z,27.98
2023-09-15T10:56:58.827Z,27.94
2023-09-15T10:59:27.080Z,28.06
2023-09-15T11:01:55.165Z,28.18
2023-09-15T11:04:22.879Z,28.15
2023-09-15T11:06:51.988Z,28.39
2023-09-15T11:09:20.515Z,28.18
2023-09-15T11:11:49.591Z,28.29
2023-09-15T11:14:17.722Z,28.23
2023-09-15T11:16:52.780Z,28.38
2023-09-15T11:19:21.536Z,28.59
2023-09-15T11:21:49.392Z,28.69
2023-09-15T11:24:17.247Z,28.99
2023-09-15T11:26:52.056Z,28.99
2023-09-15T11:29:45.993Z,29.36
2023-09-15T11:32:15.960Z,28.71
2023-09-15T11:34:43.024Z,28.20
2023-09-15T11:37:10.035Z,28.25
2023-09-15T11:39:37.739Z,27.80
2023-09-15T11:42:11.756Z,27.31
2023-09-15T11:44:38.940Z,27.65
2023-09-15T11:47:06.601Z,27.99
2023-09-15T11:49:34.593Z,27.94
2023-09-15T11:52:01.863Z,28.45
2023-09-15T11:54:28.863Z,28.69
2023-09-15T11:56:57.594Z,28.72
2023-09-15T11:59:25.753Z,28.69
2023-09-15T12:01:56.157Z,28.50
2023-09-15T12:04:25.643Z,28.69
2023-09-15T12:06:52.755Z,28.52
2023-09-15T12:09:21.030Z,28.61
2023-09-15T12:11:48.155Z,28.40
2023-09-15T12:14:15.955Z,28.51
2023-09-15T12:16:47.420Z,28.18
2023-09-15T12:19:17.790Z,28.26
2023-09-15T12:21:56.396Z,28.62
2023-09-15T12:24:25.178Z,28.45
2023-09-15T12:26:52.904Z,28.18
2023-09-15T12:29:20.228Z,27.61
2023-09-15T12:31:47.353Z,27.40
2023-09-15T12:34:21.418Z,27.28
2023-09-15T12:36:50.663Z,27.18
2023-09-15T12:39:17.882Z,27.21
2023-09-15T12:41:45.228Z,27.41
2023-09-15T12:44:12.731Z,27.58
2023-09-15T12:46:39.855Z,27.58
2023-09-15T12:49:07.748Z,27.79
2023-09-15T12:51:35.009Z,28.02
2023-09-15T12:54:02.269Z,28.37
2023-09-15T12:56:29.313Z,27.96
2023-09-15T12:58:56.441Z,27.79
2023-09-15T13:01:23.443Z,27.75
2023-09-15T13:03:50.997Z,28.16
2023-09-15T13:06:18.081Z,28.30
2023-09-15T13:08:44.917Z,28.37
2023-09-15T13:24:40.416Z,28.74
2023-09-15T13:27:07.823Z,28.97
2023-09-15T13:29:37.613Z,28.67
2023-09-15T13:32:04.912Z,28.44
2023-09-15T13:34:33.377Z,28.22
2023-09-15T13:37:00.605Z,28.51
2023-09-15T13:39:27.820Z,28.76
2023-09-15T13:41:54.907Z,28.34
2023-09-15T13:44:22.058Z,28.21
2023-09-15T13:46:48.972Z,28.11
2023-09-15T13:49:17.158Z,28.13
2023-09-15T13:51:45.017Z,28.22
2023-09-15T13:54:12.417Z,28.15
2023-09-15T13:56:39.429Z,28.24
2023-09-15T13:59:06.500Z,28.36
2023-09-15T14:01:34.392Z,28.22
2023-09-15T14:04:01.482Z,28.16
2023-09-15T14:06:28.652Z,27.85
2023-09-15T14:08:55.808Z,27.93
2023-09-15T14:11:22.865Z,27.82
2023-09-15T14:13:49.852Z,27.17
2023-09-15T14:16:17.078Z,27.38
2023-09-15T14:18:44.352Z,27.35
2023-09-15T14:21:11.433Z,27.21
2023-09-15T14:23:38.433Z,27.25
2023-09-15T14:26:05.547Z,27.41
2023-09-15T14:28:32.553Z,27.35
2023-09-15T14:31:04.736Z,27.19
2023-09-15T14:33:32.127Z,27.28
2023-09-15T14:35:59.127Z,27.35
2023-09-15T14:38:27.038Z,27.27
2023-09-15T14:40:54.859Z,27.22
2023-09-15T14:43:21.992Z,27.30
2023-09-15T14:45:49.059Z,27.23
2023-09-15T14:48:17.632Z,27.21
2023-09-15T14:50:46.429Z,26.99
2023-09-15T14:53:13.457Z,27.00
2023-09-15T14:55:40.546Z,26.90
2023-09-15T14:58:07.523Z,26.96
2023-09-15T15:00:34.468Z,26.92
2023-09-15T15:03:03.304Z,26.47
2023-09-15T15:05:30.581Z,26.55
2023-09-15T15:07:57.547Z,26.63
2023-09-15T15:10:25.357Z,26.29
2023-09-15T15:12:52.419Z,26.53
2023-09-15T15:15:20.746Z,26.80
2023-09-15T15:17:47.974Z,26.77
2023-09-15T15:20:15.233Z,26.68
2023-09-15T15:22:42.446Z,26.80
2023-09-15T15:25:09.857Z,26.75
2023-09-15T15:27:41.582Z,26.71
2023-09-15T15:30:09.585Z,26.77
2023-09-15T15:32:38.462Z,26.85
2023-09-15T15:35:06.175Z,26.71
2023-09-15T15:37:33.276Z,26.31
2023-09-15T15:40:00.391Z,26.56
2023-09-15T15:42:27.680Z,26.52
2023-09-15T15:44:58.389Z,26.38
2023-09-15T15:47:25.687Z,26.15
2023-09-15T15:49:56.415Z,26.03
2023-09-15T15:52:24.019Z,25.90
2023-09-15T15:54:51.036Z,25.93
2023-09-15T15:57:18.081Z,25.75
2023-09-15T15:59:45.304Z,25.50
2023-09-15T16:02:14.400Z,25.50
2023-09-15T16:04:42.113Z,25.31
2023-09-15T16:07:09.436Z,25.44
2023-09-15T16:09:36.966Z,25.21
2023-09-15T16:12:06.782Z,25.19
2023-09-15T16:14:34.363Z,25.22
2023-09-15T16:17:01.401Z,25.11
2023-09-15T16:19:28.494Z,24.57
2023-09-15T16:21:55.601Z,24.74
2023-09-15T16:24:22.633Z,24.80
2023-09-15T16:26:49.943Z,24.65
2023-09-15T16:29:16.851Z,24.54
2023-09-15T16:31:43.858Z,24.49
2023-09-15T16:34:10.813Z,24.26
2023-09-15T16:36:38.148Z,24.29
2023-09-15T16:39:05.329Z,24.25
2023-09-15T16:41:32.497Z,23.79
2023-09-15T16:43:59.435Z,24.01
2023-09-15T16:46:26.449Z,24.01
2023-09-15T16:48:53.570Z,23.66
2023-09-15T16:51:21.113Z,23.79
2023-09-15T16:53:48.076Z,23.69
2023-09-15T16:56:16.217Z,23.81
2023-09-15T16:58:43.606Z,23.71
2023-09-15T17:01:10.928Z,23.76
2023-09-15T17:03:39.269Z,23.91
2023-09-15T17:06:06.596Z,23.74
2023-09-15T17:08:33.651Z,23.60
2023-09-15T17:11:03.095Z,23.65
2023-09-15T17:13:30.607Z,23.45
2023-09-15T17:15:57.908Z,23.53
2023-09-15T17:18:25.708Z,23.42
2023-09-15T17:20:52.870Z,23.51
2023-09-15T17:23:19.854Z,23.51
2023-09-15T17:25:47.231Z,23.64
2023-09-15T17:28:14.195Z,23.43
2023-09-15T17:30:41.355Z,23.61
2023-09-15T17:33:11.312Z,23.53
2023-09-15T17:35:38.908Z,23.61
2023-09-15T17:38:06.102Z,23.34
2023-09-15T17:40:34.476Z,23.55
2023-09-15T17:43:01.627Z,23.66
2023-09-15T17:45:28.697Z,23.67
2023-09-15T17:47:55.864Z,23.76
2023-09-15T17:50:23.416Z,23.58
2023-09-15T17:52:51.501Z,23.68
2023-09-15T17:55:19.549Z,23.71
2023-09-15T17:57:49.548Z,23.62
2023-09-15T18:00:18.163Z,23.69
2023-09-15T18:02:46.718Z,23.65
2023-09-15T18:05:14.014Z,23.34
2023-09-15T18:07:41.499Z,23.52
2023-09-15T18:10:10.029Z,23.48
2023-09-15T18:12:38.908Z,23.44
2023-09-15T18:15:13.758Z,23.34
2023-09-15T18:17:43.598Z,23.33
2023-09-15T18:20:11.557Z,23.16
2023-09-15T18:22:40.042Z,23.02
2023-09-15T18:25:09.752Z,23.19
2023-09-15T18:27:38.981Z,23.08
2023-09-15T18:30:06.843Z,23.11
2023-09-15T18:32:34.448Z,22.98
2023-09-15T18:35:01.778Z,23.03
2023-09-15T18:37:28.824Z,22.72
2023-09-15T18:39:58.508Z,22.95
2023-09-15T18:42:25.708Z,23.03
2023-09-15T18:44:52.651Z,23.18
2023-09-15T18:47:20.657Z,23.13
2023-09-15T18:49:47.696Z,23.16
2023-09-15T18:52:15.429Z,23.14
2023-09-15T18:54:42.789Z,23.13
2023-09-15T18:57:09.885Z,23.12
2023-09-15T18:59:37.149Z,23.23
2023-09-15T19:02:04.477Z,23.09
2023-09-15T19:04:31.827Z,23.02
2023-09-15T19:06:59.236Z,23.05
2023-09-15T19:09:26.542Z,23.18
2023-09-15T19:11:53.867Z,23.13
2023-09-15T19:14:20.906Z,23.03
2023-09-15T19:16:50.856Z,23.03
2023-09-15T19:19:18.026Z,22.95
2023-09-15T19:21:46.482Z,22.69
2023-09-15T19:24:13.812Z,22.49
2023-09-15T19:26:41.066Z,22.25
2023-09-15T19:29:09.610Z,22.23
2023-09-15T19:31:36.614Z,22.10
2023-09-15T19:34:05.387Z,21.92
2023-09-15T19:36:32.630Z,21.95
2023-09-15T19:39:04.759Z,21.92
2023-09-15T19:41:32.528Z,21.72
2023-09-15T19:44:00.024Z,21.73
2023-09-15T19:46:27.251Z,21.68
2023-09-15T19:48:54.513Z,21.51
2023-09-15T19:51:22.005Z,21.60
2023-09-15T19:53:49.260Z,21.48
2023-09-15T19:56:16.819Z,21.18
2023-09-15T19:58:44.095Z,21.58
2023-09-15T20:01:11.677Z,21.57
2023-09-15T20:03:40.154Z,21.43
2023-09-15T20:06:07.328Z,21.39
2023-09-15T20:08:34.339Z,21.57
2023-09-15T20:11:01.343Z,21.64
2023-09-15T20:13:28.344Z,21.59
2023-09-15T20:15:55.625Z,21.66
2023-09-15T20:18:23.510Z,21.71
2023-09-15T20:20:53.869Z,21.59
2023-09-15T20:23:21.245Z,21.45
2023-09-15T20:25:49.467Z,21.52
2023-09-15T20:28:17.347Z,21.62
2023-09-15T20:30:44.481Z,21.58
2023-09-15T20:33:11.885Z,21.65
2023-09-15T20:35:44.984Z,21.58
2023-09-15T20:38:12.139Z,21.65
2023-09-15T20:40:39.790Z,21.36
2023-09-15T20:43:07.143Z,21.41
2023-09-15T20:45:34.601Z,21.62
2023-09-15T20:48:01.988Z,21.66
2023-09-15T20:50:29.969Z,21.64
2023-09-15T20:52:59.704Z,21.68
2023-09-15T20:55:28.376Z,21.59
2023-09-15T20:57:55.506Z,21.38
2023-09-15T21:00:23.111Z,21.40
2023-09-15T21:02:51.426Z,21.52
2023-09-15T21:05:18.808Z,21.62
2023-09-15T21:07:46.759Z,21.57
2023-09-15T21:10:17.579Z,21.39
2023-09-15T21:12:47.358Z,21.27
2023-09-15T21:15:15.308Z,21.45
2023-09-15T21:17:43.005Z,21.45
2023-09-15T21:20:11.431Z,21.41
2023-09-15T21:22:38.966Z,21.58
2023-09-15T21:25:06.669Z,21.48
2023-09-15T21:27:33.616Z,21.64
2023-09-15T21:30:01.291Z,21.51
2023-09-15T21:32:30.241Z,21.50
2023-09-15T21:34:59.342Z,21.48
2023-09-15T21:37:26.248Z,21.60
2023-09-15T21:39:53.600Z,21.67
2023-09-15T21:42:24.600Z,21.68
2023-09-15T21:44:54.306Z,21.61
2023-09-15T21:47:21.827Z,21.58
2023-09-15T21:49:49.676Z,21.59
2023-09-15T21:52:17.026Z,21.53
2023-09-15T21:54:43.982Z,21.39
2023-09-15T21:57:14.393Z,21.35
2023-09-15T21:59:42.307Z,21.45
2023-09-15T22:02:13.017Z,21.47
2023-09-15T22:04:43.437Z,21.38
2023-09-15T22:07:15.867Z,21.37
2023-09-15T22:09:46.868Z,21.18
2023-09-15T22:12:18.130Z,20.99
2023-09-15T22:14:50.071Z,20.94
2023-09-15T22:17:21.479Z,21.14
2023-09-15T22:19:49.603Z,20.98
2023-09-15T22:22:21.895Z,20.83
2023-09-15T22:25:09.436Z,20.99
2023-09-15T22:27:36.731Z,21.14
2023-09-15T22:30:07.036Z,20.95
2023-09-15T22:32:36.208Z,21.00
2023-09-15T22:35:08.136Z,20.97
2023-09-15T22:37:37.717Z,20.76
2023-09-15T22:40:09.986Z,20.84
2023-09-15T22:42:39.653Z,20.78
2023-09-15T22:45:07.809Z,20.91
2023-09-15T22:47:42.007Z,21.00
2023-09-15T22:50:11.521Z,20.69
2023-09-15T22:52:42.652Z,20.68
2023-09-15T22:55:14.947Z,20.54
2023-09-15T22:57:42.812Z,20.56
2023-09-15T23:00:14.176Z,20.12
2023-09-15T23:02:44.380Z,20.23
2023-09-15T23:05:14.423Z,20.58
2023-09-15T23:07:44.577Z,20.49
2023-09-15T23:10:13.641Z,20.36
2023-09-15T23:12:42.308Z,20.05
2023-09-15T23:15:14.055Z,20.04
2023-09-15T23:17:41.861Z,19.72
2023-09-15T23:20:09.249Z,19.86
2023-09-15T23:22:37.952Z,19.91
2023-09-15T23:25:06.315Z,19.85
2023-09-15T23:27:35.161Z,19.77
2023-09-15T23:30:04.613Z,19.72
2023-09-15T23:32:32.152Z,19.77
2023-09-15T23:34:59.683Z,19.78
2023-09-15T23:37:38.071Z,19.79
2023-09-15T23:40:10.334Z,19.93
2023-09-15T23:42:42.400Z,20.00
2023-09-15T23:45:10.222Z,19.47
2023-09-15T23:47:37.878Z,19.55
2023-09-15T23:50:08.549Z,19.49
2023-09-15T23:52:35.641Z,19.66
2023-09-15T23:55:03.354Z,19.60
2023-09-15T23:57:30.437Z,19.46
2023-09-15T23:59:58.253Z,19.68
